Time;durP1;ratioP1;P1;durP2;ratioP2;P2;SDS_P1;SDS_P2;PMS_P1;PMS_P2;Temp;Humidity;BMP_temperature;BMP_pressure;BME280_temperature;BME280_humidity;BME280_pressure;Samples;Min_cycle;Max_cycle;Signal;HPM_P1;HPM_P2
2022/03/13 00:02:07;;;;;;;20.33;9.82;;;;;;;-2.79;55.91;100991.25;4826228;29;20157;-82
2022/03/13 00:04:37;;;;;;;25.60;9.13;;;;;;;-2.61;55.45;101031.44;4817837;29;20136;-80
2022/03/13 00:07:18;;;;;;;17.70;9.43;;;;;;;-2.76;55.40;101006.72;4847340;24;20046;-83
2022/03/13 00:10:10;;;;;;;18.50;9.82;;;;;;;-2.51;55.46;101030.34;5113375;23;20042;31
2022/03/13 00:12:48;;;;;;;22.27;9.32;;;;;;;-2.55;55.74;101036.94;4809149;29;20050;-82
2022/03/13 00:15:38;;;;;;;18.08;8.52;;;;;;;-2.72;55.71;101003.59;4791846;29;20122;-83
2022/03/13 00:18:05;;;;;;;22.40;9.50;;;;;;;-2.85;55.61;100979.75;4807798;29;20054;-85
2022/03/13 00:20:33;;;;;;;16.88;8.73;;;;;;;-2.63;55.26;101028.78;4807070;29;20158;-83
2022/03/13 00:22:59;;;;;;;20.38;8.55;;;;;;;-3.04;55.62;100973.50;4820060;29;20038;-84
2022/03/13 00:25:26;;;;;;;21.58;9.48;;;;;;;-3.20;55.57;100941.94;4805784;29;20046;-81
2022/03/13 00:27:53;;;;;;;21.90;8.95;;;;;;;-3.14;55.88;100959.28;4805705;29;20126;-84
2022/03/13 00:30:20;;;;;;;20.73;9.25;;;;;;;-3.04;55.97;100981.13;4802781;29;20052;-83
2022/03/13 00:32:46;;;;;;;22.27;9.63;;;;;;;-3.41;55.41;100935.44;4813787;29;21082;-84
2022/03/13 00:35:13;;;;;;;20.92;9.18;;;;;;;-2.83;55.95;101029.16;4795632;29;20061;-84
2022/03/13 00:37:39;;;;;;;19.45;9.65;;;;;;;-3.03;55.81;101001.63;4807736;29;20051;-84
2022/03/13 00:40:06;;;;;;;23.55;10.77;;;;;;;-3.02;55.67;101017.78;4806939;29;20047;-80
2022/03/13 00:42:31;;;;;;;26.52;12.13;;;;;;;-3.63;55.87;100921.31;4808034;29;20050;-86
2022/03/13 00:44:58;;;;;;;27.98;14.77;;;;;;;-2.91;56.67;101031.22;4791650;29;20133;-84
2022/03/13 00:47:24;;;;;;;24.95;13.35;;;;;;;-2.88;56.75;101032.31;4794684;29;20046;-84
2022/03/13 00:49:51;;;;;;;23.33;12.25;;;;;;;-3.31;55.90;100959.84;4808129;29;21079;-84
2022/03/13 00:52:17;;;;;;;26.15;13.55;;;;;;;-3.48;56.05;100960.50;4791381;29;20062;-82
2022/03/13 00:54:44;;;;;;;26.95;14.07;;;;;;;-3.30;56.38;100987.94;4809308;29;20054;-84
2022/03/13 00:57:10;;;;;;;30.17;13.60;;;;;;;-3.07;56.58;101030.22;4808154;29;20054;-81
2022/03/13 00:59:36;;;;;;;30.75;14.07;;;;;;;-3.43;56.64;100977.72;4802951;29;20176;-85
2022/03/13 01:02:03;;;;;;;27.63;14.13;;;;;;;-3.54;56.55;100961.75;4787270;29;20646;-83
2022/03/13 01:04:29;;;;;;;29.55;14.50;;;;;;;-3.43;56.44;100995.56;4780781;30;20539;-82
2022/03/13 01:06:55;;;;;;;32.80;14.45;;;;;;;-3.49;56.74;100989.25;4789012;29;20051;-81
2022/03/13 01:09:21;;;;;;;25.67;13.15;;;;;;;-3.57;56.50;100992.97;4784628;30;20053;-79
2022/03/13 01:11:47;;;;;;;32.67;13.77;;;;;;;-3.71;56.46;100975.88;4782253;30;20063;-81
2022/03/13 01:14:16;;;;;;;28.77;14.27;;;;;;;-3.31;56.71;101036.22;4806118;29;20100;-80
2022/03/13 01:16:43;;;;;;;28.67;13.30;;;;;;;-3.66;56.70;100979.63;4796936;29;20039;-81
2022/03/13 01:19:09;;;;;;;27.50;13.07;;;;;;;-3.79;56.32;100966.09;4795306;29;20663;-80
2022/03/13 01:24:58;;;;;;;23.60;11.45;;;;;;;-3.61;56.79;100997.75;4946970;23;20141;31
2022/03/13 01:30:49;;;;;;;19.55;10.95;;;;;;;-4.03;56.62;100944.94;5296404;23;20061;-83
2022/03/13 01:33:15;;;;;;;23.45;10.80;;;;;;;-3.57;56.50;101010.78;4827457;29;20142;-84
2022/03/13 01:35:41;;;;;;;20.65;11.27;;;;;;;-3.76;56.74;100969.63;4849963;29;20054;-83
2022/03/13 01:38:08;;;;;;;21.42;9.80;;;;;;;-3.22;56.31;101047.91;4838689;29;20054;-85
2022/03/13 01:40:34;;;;;;;22.27;10.02;;;;;;;-3.42;56.26;101010.91;4824698;29;20050;-83
2022/03/13 01:43:01;;;;;;;19.40;9.68;;;;;;;-3.36;56.40;101025.75;4846370;29;20038;-83
2022/03/13 01:45:27;;;;;;;21.80;9.73;;;;;;;-3.80;55.94;100955.78;4830944;29;20050;-85
2022/03/13 01:47:53;;;;;;;18.75;9.13;;;;;;;-3.10;56.54;101052.94;4874475;29;20054;-88
2022/03/13 01:50:20;;;;;;;19.23;9.02;;;;;;;-3.16;55.95;101039.78;4833725;29;20141;-83
2022/03/13 01:52:48;;;;;;;18.67;9.15;;;;;;;-3.33;56.35;100991.19;4823891;29;20046;-85
2022/03/13 01:55:15;;;;;;;20.65;9.82;;;;;;;-2.79;56.08;101060.06;4839824;29;20049;-84
2022/03/13 01:57:41;;;;;;;22.27;9.48;;;;;;;-2.69;56.11;101068.28;4839678;29;20639;-83
2022/03/13 02:00:09;;;;;;;19.95;9.82;;;;;;;-2.82;55.78;101013.09;4826100;29;20061;-87
2022/03/13 02:02:47;;;;;;;21.85;9.45;;;;;;;-2.45;55.31;101053.72;4838327;29;20077;-83
2022/03/13 02:05:30;;;;;;;21.00;9.98;;;;;;;-2.30;55.37;101056.31;4824311;29;20078;-84
2022/03/13 02:07:57;;;;;;;20.02;9.95;;;;;;;-2.59;55.24;101000.16;4838227;29;20058;-86
2022/03/13 02:10:25;;;;;;;25.42;9.88;;;;;;;-2.24;54.78;101041.41;4858463;29;20409;-83
2022/03/13 02:12:52;;;;;;;22.25;9.40;;;;;;;-2.29;55.13;101022.38;4863084;29;20050;-84
2022/03/13 02:15:18;;;;;;;21.17;9.50;;;;;;;-2.16;54.63;101024.94;4838948;29;20042;-81
2022/03/13 02:17:44;;;;;;;19.85;10.07;;;;;;;-2.09;54.84;101031.28;4842163;29;20161;-82
2022/03/13 02:20:20;;;;;;;22.77;9.98;;;;;;;-1.91;54.46;101041.75;4841036;29;20052;-86
2022/03/13 02:22:47;;;;;;;20.05;10.38;;;;;;;-2.24;54.80;100969.13;4812726;29;20137;-86
2022/03/13 02:25:20;;;;;;;21.48;9.98;;;;;;;-1.67;54.42;101069.56;4856271;29;20097;-83
2022/03/13 02:27:47;;;;;;;20.25;10.35;;;;;;;-1.96;54.32;101004.88;4865656;29;20407;-86
2022/03/13 02:30:14;;;;;;;18.42;10.30;;;;;;;-1.97;54.37;100975.03;4852373;29;20061;-86
2022/03/13 02:32:40;;;;;;;22.52;10.02;;;;;;;-2.16;54.25;100934.75;4831307;29;20115;-83
2022/03/13 02:35:07;;;;;;;18.33;10.05;;;;;;;-2.06;54.11;100926.00;4843945;29;20046;-86
2022/03/13 02:37:34;;;;;;;19.10;9.65;;;;;;;-1.24;53.82;101051.72;4841956;29;20046;-84
2022/03/13 02:40:00;;;;;;;18.73;10.40;;;;;;;-1.15;53.81;101050.47;4840063;29;20095;-83
2022/03/13 02:42:26;;;;;;;20.25;10.07;;;;;;;-1.73;53.93;100941.56;4838341;29;20043;-83
2022/03/13 02:44:52;;;;;;;16.55;9.48;;;;;;;-1.80;54.07;100926.66;4844416;29;20044;-82
2022/03/13 02:47:19;;;;;;;18.02;9.35;;;;;;;-1.53;53.57;100956.38;4835704;29;20046;-82
2022/03/13 02:49:45;;;;;;;15.90;9.80;;;;;;;-1.23;53.90;100997.28;4868951;29;20046;-80
2022/03/13 02:52:11;;;;;;;21.52;10.10;;;;;;;-1.35;53.48;100976.13;4854894;29;20054;-84
2022/03/13 02:54:37;;;;;;;21.15;9.82;;;;;;;-1.65;53.24;100909.69;4858584;29;20034;-85
2022/03/13 02:57:04;;;;;;;19.75;9.63;;;;;;;-1.10;53.40;101028.63;4843509;29;20038;-84
2022/03/13 02:59:30;;;;;;;19.25;9.85;;;;;;;-0.98;53.55;101039.56;4807415;29;20045;-85
2022/03/13 03:01:57;;;;;;;22.63;9.90;;;;;;;-0.83;53.23;101047.22;4835587;29;20514;-84
2022/03/13 03:04:24;;;;;;;23.35;10.32;;;;;;;-1.39;53.32;100969.06;4809863;29;20042;-84
2022/03/13 03:06:56;;;;;;;21.98;11.02;;;;;;;-1.16;53.29;100993.41;4840261;29;20056;-86
2022/03/13 03:09:23;;;;;;;19.67;9.95;;;;;;;-1.29;53.54;100958.59;4847866;29;20048;-84
2022/03/13 03:11:49;;;;;;;26.80;14.02;;;;;;;-1.10;53.13;100972.44;4838254;29;20550;-85
2022/03/13 03:14:16;;;;;;;16.17;9.05;;;;;;;-0.60;53.48;101063.00;4836196;29;20141;-84
2022/03/13 03:17:05;;;;;;;21.02;9.80;;;;;;;-0.55;52.78;101066.69;4841965;29;20041;-81
2022/03/13 03:19:51;;;;;;;19.25;9.10;;;;;;;-0.50;52.85;101066.94;4835638;29;20045;-84
2022/03/13 03:22:18;;;;;;;18.70;10.10;;;;;;;-0.53;53.14;101051.44;4839225;29;20102;-83
2022/03/13 03:24:44;;;;;;;20.95;9.38;;;;;;;-0.38;52.83;101079.53;4833405;29;20041;-84
2022/03/13 03:27:10;;;;;;;21.52;10.45;;;;;;;-0.69;52.77;101012.22;4848412;29;20050;-83
2022/03/13 03:29:36;;;;;;;20.35;9.35;;;;;;;-0.37;52.67;101060.84;4819990;29;20057;-85
2022/03/13 03:32:03;;;;;;;18.63;10.20;;;;;;;-0.28;52.28;101066.50;4850446;29;20436;-83
2022/03/13 03:34:29;;;;;;;19.45;9.75;;;;;;;-0.56;52.53;101025.72;4846312;29;20050;-84
2022/03/13 03:37:02;;;;;;;20.65;10.68;;;;;;;-0.60;52.62;101011.84;4842285;29;20046;-87
2022/03/13 03:39:31;;;;;;;18.98;10.15;;;;;;;-0.32;52.65;101065.41;4840270;29;20085;-84
2022/03/13 03:41:59;;;;;;;20.38;10.18;;;;;;;-1.07;52.28;100941.94;4814392;29;20050;-84
2022/03/13 03:44:26;;;;;;;18.23;9.82;;;;;;;-0.32;52.57;101049.19;4838609;29;20045;-82
2022/03/13 03:46:52;;;;;;;21.73;10.07;;;;;;;-0.21;52.72;101062.59;4842913;29;20042;-83
2022/03/13 03:49:18;;;;;;;17.83;9.45;;;;;;;-0.56;52.12;100992.47;4860503;29;20041;-84
2022/03/13 03:51:44;;;;;;;18.92;9.13;;;;;;;-0.93;52.54;100930.81;4840238;29;20042;-85
2022/03/13 03:54:11;;;;;;;20.42;9.45;;;;;;;-0.37;52.32;101013.16;4863013;29;20043;-84
2022/03/13 03:56:38;;;;;;;15.23;9.05;;;;;;;-0.81;52.00;100938.28;4845322;29;20521;-86
2022/03/13 03:59:04;;;;;;;20.92;10.02;;;;;;;-0.01;52.10;101056.00;4871642;29;20044;-85
2022/03/13 04:01:37;;;;;;;17.73;9.32;;;;;;;-0.41;52.35;100982.19;4858928;29;20038;-84
2022/03/13 04:04:07;;;;;;;23.45;10.02;;;;;;;-0.05;52.38;101019.13;4858158;29;20114;-86
2022/03/13 04:06:38;;;;;;;17.20;8.45;;;;;;;-0.08;52.05;101018.94;4866559;29;20055;-83
2022/03/13 04:09:11;;;;;;;16.00;8.63;;;;;;;0.20;52.23;101048.59;4863928;29;20060;-84
2022/03/13 04:11:37;;;;;;;14.30;8.25;;;;;;;-0.28;51.88;100966.72;4853952;29;20061;-81
2022/03/13 04:14:04;;;;;;;13.85;7.20;;;;;;;0.13;51.79;101026.00;4837972;29;20066;-85
2022/03/13 04:16:30;;;;;;;10.65;6.40;;;;;;;-0.05;51.44;101014.00;4852352;29;20057;-83
2022/03/13 04:18:57;;;;;;;11.27;5.90;;;;;;;0.19;52.19;101066.44;4825129;29;20066;-82
2022/03/13 04:21:24;;;;;;;8.02;5.45;;;;;;;0.31;52.02;101051.72;4837698;29;20061;-84
2022/03/13 04:23:51;;;;;;;8.32;5.55;;;;;;;0.09;52.36;101007.06;4823238;29;20045;-84
2022/03/13 04:26:17;;;;;;;9.68;6.20;;;;;;;0.32;51.93;101033.00;4790663;29;20080;-83
2022/03/13 04:28:45;;;;;;;11.00;5.85;;;;;;;0.38;51.61;101027.31;4848819;29;20046;-83
2022/03/13 04:31:13;;;;;;;8.35;5.43;;;;;;;0.43;51.73;101007.94;4860497;29;20194;-84
2022/03/13 04:33:40;;;;;;;8.90;5.60;;;;;;;0.20;51.31;100964.09;4846621;29;20179;-85
2022/03/13 04:36:13;;;;;;;8.65;5.80;;;;;;;0.31;52.02;100982.56;4838254;29;20057;-84
2022/03/13 04:38:40;;;;;;;17.83;9.57;;;;;;;0.69;51.08;101016.06;4827912;29;20042;-84
2022/03/13 04:41:07;;;;;;;8.65;5.07;;;;;;;0.38;51.09;100976.06;4842220;29;20053;-85
2022/03/13 04:43:38;;;;;;;9.30;5.40;;;;;;;0.18;51.30;100942.66;4847549;29;20132;-83
2022/03/13 04:46:08;;;;;;;7.97;5.53;;;;;;;0.29;50.87;100932.97;4842500;29;20049;-84
2022/03/13 04:48:35;;;;;;;7.90;5.53;;;;;;;0.64;51.68;101007.28;4834038;29;20428;-83
2022/03/13 04:51:04;;;;;;;7.28;4.97;;;;;;;0.98;50.77;101047.44;4850931;29;20050;-85
2022/03/13 04:53:30;;;;;;;7.93;4.63;;;;;;;0.57;51.32;100988.16;4841161;29;20114;-85
2022/03/13 04:55:57;;;;;;;6.60;5.10;;;;;;;0.13;51.05;100904.03;4842822;29;20072;-85
2022/03/13 04:58:24;;;;;;;5.78;4.70;;;;;;;0.85;50.83;101008.34;4838521;29;20046;-84
2022/03/13 05:00:53;;;;;;;6.30;4.90;;;;;;;0.71;50.97;100974.34;4839726;29;20050;-84
2022/03/13 05:03:19;;;;;;;7.03;4.82;;;;;;;0.68;50.90;100983.56;4827630;29;20045;-84
2022/03/13 05:05:46;;;;;;;5.68;4.45;;;;;;;1.17;50.79;101052.66;4839236;29;20050;-89
2022/03/13 05:08:17;;;;;;;6.63;4.50;;;;;;;0.90;50.85;101003.44;4837674;29;20076;-87
2022/03/13 05:10:45;;;;;;;4.47;3.58;;;;;;;1.13;50.68;101045.63;4834224;29;20106;-85
2022/03/13 05:13:15;;;;;;;4.05;3.53;;;;;;;1.23;50.47;101080.28;4837862;29;20065;-85
2022/03/13 05:16:01;;;;;;;4.75;3.90;;;;;;;1.17;50.44;101039.84;4858287;29;20518;-82
2022/03/13 05:18:29;;;;;;;4.95;3.55;;;;;;;1.27;50.79;101056.56;4834719;29;20069;-87
2022/03/13 05:20:58;;;;;;;5.35;3.42;;;;;;;1.18;50.29;101044.16;4846878;29;20152;-81
2022/03/13 05:23:24;;;;;;;4.00;3.40;;;;;;;0.85;49.89;100980.16;4840515;29;20525;-83
2022/03/13 05:25:50;;;;;;;4.47;3.60;;;;;;;0.72;50.05;100986.34;4833088;29;20425;-86
2022/03/13 05:28:16;;;;;;;5.22;3.75;;;;;;;0.40;49.71;100946.31;4852064;29;20047;-85
2022/03/13 05:30:44;;;;;;;5.85;3.20;;;;;;;0.99;50.17;101036.38;4823093;29;20060;-83
2022/03/13 05:36:52;;;;;;;5.32;3.22;;;;;;;1.08;50.14;101005.19;4843275;29;20046;-85
2022/03/13 05:39:38;;;;;;;5.05;3.40;;;;;;;1.15;49.86;101015.81;4823817;29;20053;-86
2022/03/13 05:42:38;;;;;;;4.82;3.35;;;;;;;1.75;49.44;101091.34;4840683;29;20078;-85
2022/03/13 05:45:05;;;;;;;6.60;3.80;;;;;;;1.14;49.08;100980.72;4856778;29;20038;-83
2022/03/13 05:47:31;;;;;;;5.93;3.83;;;;;;;1.77;48.92;101100.84;4856952;29;20146;-83
2022/03/13 05:50:05;;;;;;;5.70;3.28;;;;;;;1.54;48.98;101051.00;4839850;29;20038;-83
2022/03/13 05:52:34;;;;;;;3.97;2.70;;;;;;;1.26;48.84;101008.63;4840197;29;20046;-84
2022/03/13 05:55:01;;;;;;;3.70;2.55;;;;;;;1.20;48.35;101029.75;4836638;29;20049;-83
2022/03/13 05:57:27;;;;;;;3.05;2.70;;;;;;;1.02;48.65;101042.53;4822838;29;20797;-84
2022/03/13 05:59:53;;;;;;;2.97;2.50;;;;;;;1.11;48.71;101077.09;4833295;29;20077;-82
2022/03/13 06:02:22;;;;;;;4.25;2.55;;;;;;;1.07;49.40;101060.69;4828925;29;20536;-84
2022/03/13 06:04:51;;;;;;;5.05;2.90;;;;;;;1.24;49.19;101071.78;4817900;29;20085;-83
2022/03/13 06:07:17;;;;;;;4.82;2.70;;;;;;;1.52;48.62;101115.88;4831066;29;20072;-84
2022/03/13 06:09:47;;;;;;;5.63;2.70;;;;;;;1.14;48.24;101065.34;4847885;29;20114;-84
2022/03/13 06:12:19;;;;;;;4.93;2.50;;;;;;;1.09;48.78;101043.69;4820230;29;20550;-85
2022/03/13 06:14:46;;;;;;;4.03;2.20;;;;;;;1.07;48.85;101027.38;4825113;29;20060;-87
2022/03/13 06:17:14;;;;;;;3.75;2.50;;;;;;;1.08;48.43;101025.69;4809440;29;20074;-84
2022/03/13 06:19:42;;;;;;;3.33;2.40;;;;;;;1.16;48.45;101032.97;4853433;29;20106;-87
2022/03/13 06:22:12;;;;;;;3.00;2.60;;;;;;;0.96;48.01;101008.03;4841629;29;20078;-85
2022/03/13 06:24:41;;;;;;;3.15;2.30;;;;;;;1.35;48.36;101069.75;4838657;29;20124;-87
2022/03/13 06:27:10;;;;;;;6.93;2.58;;;;;;;1.31;48.78;101058.47;4841306;29;20140;-85
2022/03/13 06:29:40;;;;;;;3.35;2.38;;;;;;;1.20;48.30;101040.00;4835038;29;20382;-84
2022/03/13 06:32:07;;;;;;;5.07;2.42;;;;;;;1.59;48.32;101098.28;4838058;29;20825;-85
2022/03/13 06:34:38;;;;;;;3.63;2.58;;;;;;;1.75;47.57;101117.00;4851395;29;20194;-88
2022/03/13 06:37:08;;;;;;;3.90;2.70;;;;;;;1.33;47.58;101038.88;4826086;29;20052;-84
2022/03/13 06:40:01;;;;;;;5.82;2.67;;;;;;;1.78;47.81;101112.88;4854335;29;20509;-87
2022/03/13 06:42:29;;;;;;;6.07;2.97;;;;;;;1.87;47.92;101115.00;4820744;29;20050;-86
2022/03/13 06:44:55;;;;;;;6.88;3.13;;;;;;;1.89;47.71;101108.25;4839887;29;20042;-85
2022/03/13 06:47:27;;;;;;;2.97;2.65;;;;;;;1.79;48.01;101099.25;4837347;29;20050;-83
2022/03/13 06:49:55;;;;;;;4.65;2.97;;;;;;;1.38;47.84;101041.69;4852641;29;20041;-85
2022/03/13 06:52:21;;;;;;;7.85;4.30;;;;;;;1.53;47.71;101074.91;4835691;29;20140;-82
2022/03/13 06:54:52;;;;;;;6.72;3.25;;;;;;;1.74;48.09;101123.81;4823443;29;20048;-84
2022/03/13 06:57:19;;;;;;;6.22;3.40;;;;;;;1.77;48.15;101117.94;4851585;29;20069;-83
2022/03/13 06:59:50;;;;;;;5.80;3.15;;;;;;;1.94;48.15;101127.34;4858513;29;20422;-85
2022/03/13 07:02:19;;;;;;;6.57;3.13;;;;;;;1.86;48.32;101102.97;4845773;29;20045;-86
2022/03/13 07:04:47;;;;;;;6.28;3.60;;;;;;;1.41;48.38;100995.66;4829490;29;20514;-85
2022/03/13 07:07:18;;;;;;;6.80;3.70;;;;;;;1.99;47.94;101086.47;4845428;29;20045;-85
2022/03/13 07:09:48;;;;;;;6.03;3.42;;;;;;;1.65;48.26;101015.59;4861254;29;20038;-82
2022/03/13 07:12:16;;;;;;;7.50;3.63;;;;;;;1.90;48.08;101032.13;4824931;29;20063;-84
2022/03/13 07:14:58;;;;;;;5.63;3.40;;;;;;;2.07;48.02;101027.75;4797278;29;20038;-84
2022/03/13 07:17:24;;;;;;;11.48;3.75;;;;;;;2.43;47.87;101050.75;4864990;29;20053;-83
2022/03/13 07:19:52;;;;;;;8.63;3.75;;;;;;;2.63;47.84;101028.50;4849806;29;20106;-85
2022/03/13 07:22:18;;;;;;;7.53;3.78;;;;;;;2.38;47.59;100972.63;4827401;29;20536;-83
2022/03/13 07:24:48;;;;;;;7.15;4.20;;;;;;;2.51;47.12;100967.19;4833322;29;20050;-85
2022/03/13 07:27:17;;;;;;;9.25;3.80;;;;;;;2.60;47.04;101000.09;4839537;29;20566;-84
2022/03/13 07:29:51;;;;;;;5.32;3.40;;;;;;;2.75;47.03;101038.44;4868094;29;20089;-83
2022/03/13 07:32:31;;;;;;;7.70;3.90;;;;;;;2.76;46.85;101063.34;4851197;29;20037;-86
2022/03/13 07:35:01;;;;;;;5.05;3.88;;;;;;;2.38;47.26;100996.59;4856129;29;20045;-85
2022/03/13 07:37:30;;;;;;;11.43;4.63;;;;;;;2.23;47.56;100959.97;4841355;29;20189;-84
2022/03/13 07:40:03;;;;;;;8.50;4.47;;;;;;;2.85;47.83;101056.03;4872754;29;20049;-82
2022/03/13 07:43:09;;;;;;;7.45;4.07;;;;;;;2.18;47.63;100939.25;4850058;29;20101;-85
2022/03/13 07:45:46;;;;;;;9.75;4.50;;;;;;;2.54;47.59;101011.00;4790430;29;20196;-85
2022/03/13 07:48:17;;;;;;;12.02;4.88;;;;;;;2.16;48.06;100953.69;4838266;29;20144;-84
2022/03/13 07:51:19;;;;;;;;;;;;;;;;;;;;;
2022/03/13 07:53:46;;;;;;;8.38;4.43;;;;;;;2.99;47.64;101037.72;4850103;29;20074;-77
2022/03/13 07:56:15;;;;;;;10.85;4.45;;;;;;;3.09;47.50;101034.69;4871983;29;20022;-81
2022/03/13 07:58:43;;;;;;;8.65;4.68;;;;;;;3.03;47.27;101005.28;4856641;29;20064;-79
2022/03/13 08:01:14;;;;;;;11.20;4.57;;;;;;;3.53;47.04;101051.91;4844342;29;20050;-79
2022/03/13 08:03:44;;;;;;;11.13;5.05;;;;;;;3.70;47.33;101055.13;4851134;29;20426;-79
2022/03/13 08:06:11;;;;;;;12.40;5.10;;;;;;;3.84;46.59;101050.53;4840231;29;20053;-79
2022/03/13 08:08:38;;;;;;;10.93;5.10;;;;;;;3.69;46.83;101043.06;4847191;29;20049;-81
2022/03/13 08:11:14;;;;;;;11.38;5.97;;;;;;;3.76;46.90;101053.66;4843864;29;20042;-80
2022/03/13 08:13:43;;;;;;;12.07;5.03;;;;;;;4.00;46.96;101049.41;4822445;29;20417;-79
2022/03/13 08:19:16;;;;;;;;;;;;;;;;;;;;;
2022/03/13 08:21:51;;;;;;;10.18;4.50;;;;;;;5.09;45.71;101082.50;4823496;29;20129;-80
2022/03/13 08:24:20;;;;;;;8.27;5.38;;;;;;;5.00;45.61;101058.97;4854770;29;20046;-79
2022/03/13 08:26:49;;;;;;;9.15;4.57;;;;;;;5.24;45.51;101070.13;4863393;29;20050;-81
2022/03/13 08:29:42;;;;;;;12.73;4.50;;;;;;;5.41;45.40;101073.25;4828275;29;20098;-81
2022/03/13 08:32:21;;;;;;;9.75;5.15;;;;;;;4.92;43.54;100974.47;4841428;29;20054;-82
2022/03/13 08:35:31;;;;;;;7.60;4.38;;;;;;;4.85;44.77;100949.31;4851818;29;20042;-80
2022/03/13 08:38:04;;;;;;;11.50;5.00;;;;;;;5.77;45.03;101065.75;4838933;29;20045;-81
2022/03/13 08:40:35;;;;;;;8.10;4.85;;;;;;;5.33;44.32;100961.13;4840945;29;20057;-81
2022/03/13 08:43:10;;;;;;;11.90;5.28;;;;;;;5.89;43.73;101032.53;4830837;29;20040;-79
2022/03/13 08:45:38;;;;;;;10.18;5.65;;;;;;;5.96;44.48;101054.28;4846359;29;20077;-82
2022/03/13 08:48:06;;;;;;;9.18;5.22;;;;;;;6.10;43.17;101058.19;4849527;29;20047;-83
2022/03/13 08:50:34;;;;;;;8.82;4.53;;;;;;;5.55;43.96;100954.91;4844040;29;20501;-81
2022/03/13 08:53:05;;;;;;;12.05;4.95;;;;;;;6.43;42.86;101053.94;4862155;29;20058;-84
2022/03/13 08:55:31;;;;;;;9.15;4.95;;;;;;;6.61;43.08;101044.09;4851330;29;20184;-85
2022/03/13 08:58:03;;;;;;;8.98;4.72;;;;;;;6.80;42.91;101039.41;4851359;29;20041;-83
2022/03/13 09:00:32;;;;;;;8.13;4.65;;;;;;;6.61;42.56;101028.59;4837224;29;20058;-86
2022/03/13 09:03:21;;;;;;;10.63;4.57;;;;;;;6.57;42.12;100997.44;4835162;29;20071;-84
2022/03/13 09:06:21;;;;;;;6.60;4.40;;;;;;;6.37;42.27;100961.56;4853303;29;20053;-86
2022/03/13 09:09:41;;;;;;;6.57;4.00;;;;;;;6.63;41.72;100974.28;4849632;29;20058;-83
2022/03/13 09:17:00;;;;;;;11.82;5.85;;;;;;;6.44;41.95;100960.88;4832275;29;20125;-84
2022/03/13 09:19:58;;;;;;;5.90;3.80;;;;;;;6.86;42.37;101041.28;4836256;29;20043;-85
2022/03/13 09:23:37;;;;;;;8.45;4.75;;;;;;;6.78;41.76;101035.91;4834343;29;20050;-85
2022/03/13 09:27:02;;;;;;;5.22;4.00;;;;;;;6.18;41.56;100961.06;4759248;30;20130;-84
2022/03/13 09:29:56;;;;;;;7.68;3.88;;;;;;;6.42;41.76;101027.19;4758382;29;20075;-84
2022/03/13 09:32:29;;;;;;;5.18;4.03;;;;;;;6.23;41.74;101019.75;4833702;29;20072;-83
2022/03/13 09:39:06;;;;;;;6.00;3.88;;;;;;;6.01;42.49;101029.47;4809572;29;20189;-82
2022/03/13 09:41:49;;;;;;;6.35;3.97;;;;;;;5.91;42.81;100996.44;4799089;29;20075;-82
2022/03/13 09:45:08;;;;;;;9.45;4.18;;;;;;;6.25;42.00;101028.44;4835842;29;20054;-81
2022/03/13 09:48:21;;;;;;;;;;;;;;;;;;;;;
2022/03/13 09:51:12;;;;;;;6.25;4.20;;;;;;;5.46;41.42;100935.69;4824326;29;20088;-80
2022/03/13 09:53:50;;;;;;;5.93;4.03;;;;;;;5.65;41.98;101012.88;4818321;29;20147;-81
2022/03/13 09:56:20;;;;;;;8.70;4.70;;;;;;;5.38;42.88;100949.25;4817726;29;20201;-81
2022/03/13 10:09:51;;;;;;;;;;;;;;;6.88;41.17;101005.97;4202981;27;20061;-84
2022/03/13 10:12:26;;;;;;;6.30;4.07;;;;;;;6.68;41.42;100940.81;4860069;29;19931;-85
2022/03/13 10:15:07;;;;;;;7.25;4.00;;;;;;;7.11;41.23;100979.78;4869643;29;20109;-87
2022/03/13 10:18:20;;;;;;;6.07;4.40;;;;;;;7.12;40.84;100953.06;4864510;29;20045;-82
2022/03/13 10:20:51;;;;;;;9.45;4.40;;;;;;;7.77;40.73;100994.28;4857478;29;20049;-79
2022/03/13 10:23:24;;;;;;;7.93;4.45;;;;;;;7.78;40.41;100943.31;4855607;29;20397;-81
2022/03/13 10:26:18;;;;;;;6.57;4.03;;;;;;;7.62;39.63;100905.81;4862135;29;20095;-81
2022/03/13 10:28:47;;;;;;;7.75;3.90;;;;;;;7.74;39.55;100907.81;4862344;29;20060;-81
2022/03/13 10:31:27;;;;;;;8.93;4.25;;;;;;;8.39;39.38;100979.06;4840506;29;20052;-82
2022/03/13 10:34:02;;;;;;;6.18;4.18;;;;;;;7.86;38.80;100863.13;4823866;29;20515;-80
2022/03/13 10:36:54;;;;;;;5.93;4.13;;;;;;;8.56;39.20;100941.38;4835738;29;20105;-84
2022/03/13 10:39:24;;;;;;;6.45;4.60;;;;;;;8.81;37.64;100907.19;4834136;29;20056;-84
2022/03/13 10:42:02;;;;;;;4.65;3.67;;;;;;;8.96;38.32;100911.75;4876829;29;20065;-83
2022/03/13 10:44:52;;;;;;;8.40;5.68;;;;;;;9.29;37.52;100915.69;4871074;29;20108;-82
2022/03/13 10:47:31;;;;;;;6.55;4.47;;;;;;;9.33;37.55;100899.28;4855969;29;20049;-81
2022/03/13 10:49:59;;;;;;;5.63;3.97;;;;;;;9.41;37.17;100940.97;4855650;29;20050;-82
2022/03/13 10:52:31;;;;;;;8.05;4.20;;;;;;;8.73;37.00;100891.50;4839732;29;20045;-82
2022/03/13 10:55:18;;;;;;;6.57;3.92;;;;;;;9.00;37.48;100945.56;4858831;29;20068;-81
2022/03/13 10:58:00;;;;;;;8.70;4.85;;;;;;;8.92;37.56;100916.03;4841029;29;20088;-81
2022/03/13 11:00:27;;;;;;;9.15;4.45;;;;;;;9.18;37.28;100938.91;4819365;29;20050;-81
2022/03/13 11:03:07;;;;;;;7.65;4.60;;;;;;;8.51;36.96;100877.28;4863648;29;20127;-81
2022/03/13 11:05:34;;;;;;;7.93;4.40;;;;;;;8.53;37.52;100935.25;4857083;29;20052;-82
2022/03/13 11:08:00;;;;;;;6.60;4.60;;;;;;;8.86;37.92;100934.94;4855387;29;20041;-81
2022/03/13 11:10:32;;;;;;;8.80;4.47;;;;;;;8.74;36.88;100935.63;4860637;29;20051;-81
2022/03/13 11:12:59;;;;;;;10.82;5.60;;;;;;;8.35;37.31;100913.31;4859773;29;20062;-84
2022/03/13 11:15:58;;;;;;;7.22;4.32;;;;;;;8.49;37.75;100947.31;4852970;29;20086;-82
2022/03/13 11:19:05;;;;;;;6.28;4.32;;;;;;;8.64;37.80;100936.34;4820084;29;20147;-82
2022/03/13 11:21:33;;;;;;;9.10;4.38;;;;;;;8.44;36.85;100908.28;4840117;29;20077;-81
2022/03/13 11:24:03;;;;;;;9.65;4.63;;;;;;;8.28;37.54;100932.19;4849819;29;20045;-82
2022/03/13 11:26:30;;;;;;;9.18;4.97;;;;;;;8.13;37.94;100935.38;4847418;29;20433;-79
2022/03/13 11:29:08;;;;;;;8.02;4.43;;;;;;;7.87;38.24;100878.72;4828220;29;20049;-81
2022/03/13 11:31:42;;;;;;;9.17;4.90;;;;;;;8.01;37.70;100911.78;4832769;29;20093;-81
2022/03/13 11:34:13;;;;;;;7.93;4.90;;;;;;;8.13;38.16;100936.25;4848218;29;20311;-83
2022/03/13 11:36:44;;;;;;;7.93;4.78;;;;;;;8.21;38.10;100933.78;4848572;29;20041;-83
2022/03/13 11:39:13;;;;;;;9.52;4.60;;;;;;;8.14;38.16;100935.41;4855481;29;20138;-85
2022/03/13 11:41:44;;;;;;;9.25;4.40;;;;;;;8.07;37.59;100927.47;4857994;29;20053;-79
2022/03/13 11:44:28;;;;;;;7.68;4.40;;;;;;;8.07;38.09;100922.28;4851598;29;20045;-82
2022/03/13 11:46:57;;;;;;;8.77;4.75;;;;;;;7.61;37.81;100902.38;4847334;29;20054;-81
2022/03/13 11:49:26;;;;;;;11.20;4.55;;;;;;;7.42;38.63;100921.81;4854112;29;20141;-80
2022/03/13 11:52:22;;;;;;;9.82;5.10;;;;;;;7.43;38.80;100913.22;4845935;29;20386;-83
2022/03/13 11:54:55;;;;;;;8.77;5.22;;;;;;;7.18;38.35;100910.06;4847954;29;20050;-81
2022/03/13 11:57:50;;;;;;;7.70;5.05;;;;;;;6.74;38.74;100904.72;4847444;29;20149;-81
2022/03/13 12:00:16;;;;;;;8.35;5.10;;;;;;;6.38;39.52;100906.44;4847107;29;20525;-82
2022/03/13 12:03:22;;;;;;;11.05;4.90;;;;;;;5.98;40.32;100915.66;4852480;29;20060;-82
2022/03/13 12:05:52;;;;;;;13.93;4.60;;;;;;;5.10;40.65;100801.31;4852348;29;20562;-79
2022/03/13 12:08:22;;;;;;;7.80;4.38;;;;;;;5.08;40.96;100805.56;4852096;29;20116;-80
2022/03/13 12:10:59;;;;;;;7.82;5.00;;;;;;;5.31;40.75;100856.06;4849188;29;20085;-81
2022/03/13 12:13:29;;;;;;;14.75;5.85;;;;;;;5.37;41.38;100839.09;4845528;29;20046;-82
2022/03/13 12:16:10;;;;;;;12.07;5.68;;;;;;;5.96;41.31;100896.69;4834450;29;20514;-81
2022/03/13 12:18:40;;;;;;;7.25;4.75;;;;;;;5.90;41.40;100868.09;4835427;29;20057;-80
2022/03/13 12:21:18;;;;;;;10.43;4.88;;;;;;;5.71;41.18;100815.94;4850386;29;20046;-83
2022/03/13 12:23:44;;;;;;;11.40;5.47;;;;;;;6.00;41.40;100837.41;4832846;29;20034;-84
2022/03/13 12:26:34;;;;;;;11.13;5.05;;;;;;;6.13;41.51;100817.03;4838548;29;20462;-83
2022/03/13 12:29:01;;;;;;;9.95;4.97;;;;;;;6.36;40.99;100817.63;4820476;29;20453;-84